sensor_id;sensor_type;location;lat;lon;timestamp;P1;durP1;ratioP1;P2;durP2;ratioP2
66212;SDS011;53015;50.046;8.238;2023-06-22T00:02:09;6.63;;;3.40;;
66212;SDS011;53015;50.046;8.238;2023-06-22T00:04:36;4.88;;;4.30;;
66212;SDS011;53015;50.046;8.238;2023-06-22T00:07:02;6.15;;;4.50;;
66212;SDS011;53015;50.046;8.238;2023-06-22T00:09:27;6.95;;;3.65;;
66212;SDS011;53015;50.046;8.238;2023-06-22T00:11:53;7.30;;;3.88;;
66212;SDS011;53015;50.046;8.238;2023-06-22T00:14:19;6.38;;;4.10;;
66212;SDS011;53015;50.046;8.238;2023-06-22T00:16:44;4.43;;;3.72;;
66212;SDS011;53015;50.046;8.238;2023-06-22T00:19:10;4.47;;;3.45;;
66212;SDS011;53015;50.046;8.238;2023-06-22T00:21:37;4.43;;;3.42;;
66212;SDS011;53015;50.046;8.238;2023-06-22T00:24:03;5.05;;;4.00;;
66212;SDS011;53015;50.046;8.238;2023-06-22T00:26:29;8.73;;;3.95;;
66212;SDS011;53015;50.046;8.238;2023-06-22T00:28:56;6.97;;;3.90;;
66212;SDS011;53015;50.046;8.238;2023-06-22T00:31:21;4.93;;;4.10;;
66212;SDS011;53015;50.046;8.238;2023-06-22T00:33:47;4.43;;;3.97;;
66212;SDS011;53015;50.046;8.238;2023-06-22T00:36:13;5.05;;;3.72;;
66212;SDS011;53015;50.046;8.238;2023-06-22T00:38:40;7.53;;;4.60;;
66212;SDS011;53015;50.046;8.238;2023-06-22T00:41:05;4.78;;;4.03;;
66212;SDS011;53015;50.046;8.238;2023-06-22T00:43:32;4.45;;;3.88;;
66212;SDS011;53015;50.046;8.238;2023-06-22T00:45:57;4.30;;;3.80;;
66212;SDS011;53015;50.046;8.238;2023-06-22T00:48:23;6.30;;;4.00;;
66212;SDS011;53015;50.046;8.238;2023-06-22T00:50:49;5.32;;;4.25;;
66212;SDS011;53015;50.046;8.238;2023-06-22T00:53:15;5.63;;;4.13;;
66212;SDS011;53015;50.046;8.238;2023-06-22T00:55:42;6.93;;;4.60;;
66212;SDS011;53015;50.046;8.238;2023-06-22T00:58:09;5.88;;;4.60;;
66212;SDS011;53015;50.046;8.238;2023-06-22T01:00:36;7.57;;;4.35;;
66212;SDS011;53015;50.046;8.238;2023-06-22T01:03:02;5.13;;;4.45;;
66212;SDS011;53015;50.046;8.238;2023-06-22T01:05:28;5.70;;;4.60;;
66212;SDS011;53015;50.046;8.238;2023-06-22T01:08:03;6.13;;;4.78;;
66212;SDS011;53015;50.046;8.238;2023-06-22T01:10:35;5.50;;;4.75;;
66212;SDS011;53015;50.046;8.238;2023-06-22T01:13:07;6.68;;;5.10;;
66212;SDS011;53015;50.046;8.238;2023-06-22T01:15:39;8.27;;;5.10;;
66212;SDS011;53015;50.046;8.238;2023-06-22T01:18:09;9.05;;;5.85;;
66212;SDS011;53015;50.046;8.238;2023-06-22T01:20:36;9.93;;;5.63;;
66212;SDS011;53015;50.046;8.238;2023-06-22T01:23:05;9.48;;;5.35;;
66212;SDS011;53015;50.046;8.238;2023-06-22T01:28:13;7.80;;;5.38;;
66212;SDS011;53015;50.046;8.238;2023-06-22T01:30:50;6.32;;;5.10;;
66212;SDS011;53015;50.046;8.238;2023-06-22T01:33:16;7.13;;;5.15;;
66212;SDS011;53015;50.046;8.238;2023-06-22T01:35:42;6.97;;;5.15;;
66212;SDS011;53015;50.046;8.238;2023-06-22T01:38:09;6.70;;;5.40;;
66212;SDS011;53015;50.046;8.238;2023-06-22T01:40:35;6.00;;;5.03;;
66212;SDS011;53015;50.046;8.238;2023-06-22T01:43:01;6.65;;;5.55;;
66212;SDS011;53015;50.046;8.238;2023-06-22T01:45:28;6.80;;;5.22;;
66212;SDS011;53015;50.046;8.238;2023-06-22T01:47:55;6.93;;;5.13;;
66212;SDS011;53015;50.046;8.238;2023-06-22T01:50:21;7.15;;;5.85;;
66212;SDS011;53015;50.046;8.238;2023-06-22T01:52:47;7.13;;;5.75;;
66212;SDS011;53015;50.046;8.238;2023-06-22T01:55:12;11.73;;;5.45;;
66212;SDS011;53015;50.046;8.238;2023-06-22T01:57:38;8.63;;;5.10;;
66212;SDS011;53015;50.046;8.238;2023-06-22T02:00:04;6.63;;;5.18;;
66212;SDS011;53015;50.046;8.238;2023-06-22T02:05:06;8.52;;;5.10;;
66212;SDS011;53015;50.046;8.238;2023-06-22T02:07:34;8.93;;;5.45;;
66212;SDS011;53015;50.046;8.238;2023-06-22T02:10:04;7.53;;;5.22;;
66212;SDS011;53015;50.046;8.238;2023-06-22T02:12:33;9.32;;;5.57;;
66212;SDS011;53015;50.046;8.238;2023-06-22T02:15:01;8.27;;;5.80;;
66212;SDS011;53015;50.046;8.238;2023-06-22T02:17:26;6.80;;;5.40;;
66212;SDS011;53015;50.046;8.238;2023-06-22T02:19:52;7.07;;;5.30;;
66212;SDS011;53015;50.046;8.238;2023-06-22T02:22:19;6.07;;;5.47;;
66212;SDS011;53015;50.046;8.238;2023-06-22T02:24:45;8.45;;;6.20;;
66212;SDS011;53015;50.046;8.238;2023-06-22T02:27:10;7.10;;;5.45;;
66212;SDS011;53015;50.046;8.238;2023-06-22T02:29:36;9.10;;;5.85;;
66212;SDS011;53015;50.046;8.238;2023-06-22T02:32:02;7.95;;;6.05;;
66212;SDS011;53015;50.046;8.238;2023-06-22T02:34:28;9.15;;;5.68;;
66212;SDS011;53015;50.046;8.238;2023-06-22T02:36:53;7.15;;;5.55;;
66212;SDS011;53015;50.046;8.238;2023-06-22T02:39:21;8.68;;;5.57;;
66212;SDS011;53015;50.046;8.238;2023-06-22T02:41:47;7.35;;;5.70;;
66212;SDS011;53015;50.046;8.238;2023-06-22T02:44:13;6.97;;;6.07;;
66212;SDS011;53015;50.046;8.238;2023-06-22T02:46:38;6.75;;;6.03;;
66212;SDS011;53015;50.046;8.238;2023-06-22T02:49:04;8.80;;;6.13;;
66212;SDS011;53015;50.046;8.238;2023-06-22T02:51:30;6.68;;;5.82;;
66212;SDS011;53015;50.046;8.238;2023-06-22T02:53:58;8.02;;;6.28;;
66212;SDS011;53015;50.046;8.238;2023-06-22T02:56:24;7.45;;;6.10;;
66212;SDS011;53015;50.046;8.238;2023-06-22T02:58:50;6.50;;;5.80;;
66212;SDS011;53015;50.046;8.238;2023-06-22T03:01:15;9.95;;;6.78;;
66212;SDS011;53015;50.046;8.238;2023-06-22T03:03:41;7.30;;;6.15;;
66212;SDS011;53015;50.046;8.238;2023-06-22T03:06:06;8.48;;;6.20;;
66212;SDS011;53015;50.046;8.238;2023-06-22T03:08:32;6.60;;;5.93;;
66212;SDS011;53015;50.046;8.238;2023-06-22T03:10:57;6.82;;;6.10;;
66212;SDS011;53015;50.046;8.238;2023-06-22T03:13:24;8.15;;;6.10;;
66212;SDS011;53015;50.046;8.238;2023-06-22T03:15:50;6.70;;;6.00;;
66212;SDS011;53015;50.046;8.238;2023-06-22T03:18:15;11.57;;;6.07;;
66212;SDS011;53015;50.046;8.238;2023-06-22T03:20:41;9.43;;;6.15;;
66212;SDS011;53015;50.046;8.238;2023-06-22T03:23:06;8.73;;;6.40;;
66212;SDS011;53015;50.046;8.238;2023-06-22T03:25:32;8.55;;;6.50;;
66212;SDS011;53015;50.046;8.238;2023-06-22T03:27:57;9.93;;;6.57;;
66212;SDS011;53015;50.046;8.238;2023-06-22T03:30:24;7.78;;;6.57;;
66212;SDS011;53015;50.046;8.238;2023-06-22T03:32:50;8.80;;;6.60;;
66212;SDS011;53015;50.046;8.238;2023-06-22T03:35:15;10.50;;;6.30;;
66212;SDS011;53015;50.046;8.238;2023-06-22T03:37:41;7.55;;;6.80;;
66212;SDS011;53015;50.046;8.238;2023-06-22T03:40:07;7.75;;;6.95;;
66212;SDS011;53015;50.046;8.238;2023-06-22T03:42:33;8.80;;;7.13;;
66212;SDS011;53015;50.046;8.238;2023-06-22T03:44:59;7.53;;;6.57;;
66212;SDS011;53015;50.046;8.238;2023-06-22T03:47:26;12.80;;;7.00;;
66212;SDS011;53015;50.046;8.238;2023-06-22T03:49:51;9.98;;;6.88;;
66212;SDS011;53015;50.046;8.238;2023-06-22T03:52:17;7.53;;;6.80;;
66212;SDS011;53015;50.046;8.238;2023-06-22T03:54:42;7.90;;;7.07;;
66212;SDS011;53015;50.046;8.238;2023-06-22T03:57:08;8.13;;;6.38;;
66212;SDS011;53015;50.046;8.238;2023-06-22T03:59:33;7.05;;;6.35;;
66212;SDS011;53015;50.046;8.238;2023-06-22T04:01:59;8.30;;;6.80;;
66212;SDS011;53015;50.046;8.238;2023-06-22T04:04:26;7.78;;;7.00;;
66212;SDS011;53015;50.046;8.238;2023-06-22T04:06:51;9.40;;;7.18;;
66212;SDS011;53015;50.046;8.238;2023-06-22T04:09:17;8.50;;;7.35;;
66212;SDS011;53015;50.046;8.238;2023-06-22T04:11:42;8.05;;;7.25;;
66212;SDS011;53015;50.046;8.238;2023-06-22T04:14:08;8.35;;;6.90;;
66212;SDS011;53015;50.046;8.238;2023-06-22T04:16:33;8.30;;;6.72;;
66212;SDS011;53015;50.046;8.238;2023-06-22T04:18:59;8.35;;;6.85;;
66212;SDS011;53015;50.046;8.238;2023-06-22T04:21:26;7.57;;;6.78;;
66212;SDS011;53015;50.046;8.238;2023-06-22T04:23:51;11.07;;;6.85;;
66212;SDS011;53015;50.046;8.238;2023-06-22T04:26:17;9.25;;;6.80;;
66212;SDS011;53015;50.046;8.238;2023-06-22T04:28:42;8.05;;;6.75;;
66212;SDS011;53015;50.046;8.238;2023-06-22T04:31:08;10.90;;;7.18;;
66212;SDS011;53015;50.046;8.238;2023-06-22T04:33:34;10.25;;;7.38;;
66212;SDS011;53015;50.046;8.238;2023-06-22T04:35:59;7.65;;;6.95;;
66212;SDS011;53015;50.046;8.238;2023-06-22T04:38:26;8.88;;;7.88;;
66212;SDS011;53015;50.046;8.238;2023-06-22T04:40:52;7.93;;;7.13;;
66212;SDS011;53015;50.046;8.238;2023-06-22T04:43:18;9.50;;;7.38;;
66212;SDS011;53015;50.046;8.238;2023-06-22T04:45:43;9.95;;;6.60;;
66212;SDS011;53015;50.046;8.238;2023-06-22T04:48:09;11.13;;;7.13;;
66212;SDS011;53015;50.046;8.238;2023-06-22T04:50:35;8.07;;;7.13;;
66212;SDS011;53015;50.046;8.238;2023-06-22T04:53:01;11.20;;;6.97;;
66212;SDS011;53015;50.046;8.238;2023-06-22T04:55:27;11.00;;;6.97;;
66212;SDS011;53015;50.046;8.238;2023-06-22T04:57:53;9.35;;;7.22;;
66212;SDS011;53015;50.046;8.238;2023-06-22T05:00:18;8.52;;;7.13;;
66212;SDS011;53015;50.046;8.238;2023-06-22T05:02:45;7.82;;;6.90;;
66212;SDS011;53015;50.046;8.238;2023-06-22T05:05:11;9.45;;;7.55;;
66212;SDS011;53015;50.046;8.238;2023-06-22T05:07:37;10.82;;;7.70;;
66212;SDS011;53015;50.046;8.238;2023-06-22T05:10:03;10.40;;;7.70;;
66212;SDS011;53015;50.046;8.238;2023-06-22T05:12:31;10.80;;;7.13;;
66212;SDS011;53015;50.046;8.238;2023-06-22T05:14:56;11.25;;;7.30;;
66212;SDS011;53015;50.046;8.238;2023-06-22T05:17:22;13.35;;;7.63;;
66212;SDS011;53015;50.046;8.238;2023-06-22T05:19:47;13.70;;;6.97;;
66212;SDS011;53015;50.046;8.238;2023-06-22T05:22:14;12.00;;;7.07;;
66212;SDS011;53015;50.046;8.238;2023-06-22T05:24:39;12.90;;;7.25;;
66212;SDS011;53015;50.046;8.238;2023-06-22T05:27:05;18.17;;;7.55;;
66212;SDS011;53015;50.046;8.238;2023-06-22T05:29:32;19.38;;;7.38;;
66212;SDS011;53015;50.046;8.238;2023-06-22T05:31:58;22.88;;;8.15;;
66212;SDS011;53015;50.046;8.238;2023-06-22T05:34:23;19.55;;;7.97;;
66212;SDS011;53015;50.046;8.238;2023-06-22T05:36:49;16.30;;;7.03;;
66212;SDS011;53015;50.046;8.238;2023-06-22T05:39:14;18.83;;;7.25;;
66212;SDS011;53015;50.046;8.238;2023-06-22T05:41:40;15.05;;;7.50;;
66212;SDS011;53015;50.046;8.238;2023-06-22T05:44:06;14.82;;;7.60;;
66212;SDS011;53015;50.046;8.238;2023-06-22T05:46:33;8.63;;;6.75;;
66212;SDS011;53015;50.046;8.238;2023-06-22T05:48:59;11.95;;;6.72;;
66212;SDS011;53015;50.046;8.238;2023-06-22T05:51:24;8.60;;;6.82;;
66212;SDS011;53015;50.046;8.238;2023-06-22T05:53:50;11.15;;;6.35;;
66212;SDS011;53015;50.046;8.238;2023-06-22T05:56:15;6.80;;;6.10;;
66212;SDS011;53015;50.046;8.238;2023-06-22T05:58:41;10.65;;;6.60;;
66212;SDS011;53015;50.046;8.238;2023-06-22T06:01:06;7.30;;;6.00;;
66212;SDS011;53015;50.046;8.238;2023-06-22T06:03:33;8.48;;;5.93;;
66212;SDS011;53015;50.046;8.238;2023-06-22T06:05:59;7.18;;;6.00;;
66212;SDS011;53015;50.046;8.238;2023-06-22T06:08:24;8.32;;;5.50;;
66212;SDS011;53015;50.046;8.238;2023-06-22T06:10:50;7.05;;;6.00;;
66212;SDS011;53015;50.046;8.238;2023-06-22T06:13:16;6.80;;;5.90;;
66212;SDS011;53015;50.046;8.238;2023-06-22T06:15:41;8.32;;;5.47;;
66212;SDS011;53015;50.046;8.238;2023-06-22T06:18:07;8.73;;;6.05;;
66212;SDS011;53015;50.046;8.238;2023-06-22T06:20:34;6.78;;;5.40;;
66212;SDS011;53015;50.046;8.238;2023-06-22T06:22:59;9.88;;;6.10;;
66212;SDS011;53015;50.046;8.238;2023-06-22T06:25:25;7.75;;;5.40;;
66212;SDS011;53015;50.046;8.238;2023-06-22T06:27:51;9.00;;;6.03;;
66212;SDS011;53015;50.046;8.238;2023-06-22T06:30:17;6.45;;;5.40;;
66212;SDS011;53015;50.046;8.238;2023-06-22T06:32:43;7.15;;;5.40;;
66212;SDS011;53015;50.046;8.238;2023-06-22T06:35:09;5.68;;;5.15;;
66212;SDS011;53015;50.046;8.238;2023-06-22T06:37:37;9.10;;;5.40;;
66212;SDS011;53015;50.046;8.238;2023-06-22T06:40:04;7.53;;;5.47;;
66212;SDS011;53015;50.046;8.238;2023-06-22T06:42:30;12.43;;;5.70;;
66212;SDS011;53015;50.046;8.238;2023-06-22T06:44:56;8.35;;;6.10;;
66212;SDS011;53015;50.046;8.238;2023-06-22T06:47:22;6.53;;;5.00;;
66212;SDS011;53015;50.046;8.238;2023-06-22T06:49:47;7.05;;;5.57;;
66212;SDS011;53015;50.046;8.238;2023-06-22T06:52:12;6.70;;;5.70;;
66212;SDS011;53015;50.046;8.238;2023-06-22T06:54:39;5.95;;;5.35;;
66212;SDS011;53015;50.046;8.238;2023-06-22T06:57:05;12.10;;;5.80;;
66212;SDS011;53015;50.046;8.238;2023-06-22T06:59:31;9.98;;;5.53;;
66212;SDS011;53015;50.046;8.238;2023-06-22T07:01:56;10.13;;;6.28;;
66212;SDS011;53015;50.046;8.238;2023-06-22T07:04:22;11.02;;;5.18;;
66212;SDS011;53015;50.046;8.238;2023-06-22T07:06:47;7.45;;;5.38;;
66212;SDS011;53015;50.046;8.238;2023-06-22T07:09:13;11.85;;;5.30;;
66212;SDS011;53015;50.046;8.238;2023-06-22T07:11:40;11.23;;;5.22;;
66212;SDS011;53015;50.046;8.238;2023-06-22T07:14:08;10.20;;;5.47;;
66212;SDS011;53015;50.046;8.238;2023-06-22T07:16:37;11.27;;;5.67;;
66212;SDS011;53015;50.046;8.238;2023-06-22T07:19:02;7.82;;;4.70;;
66212;SDS011;53015;50.046;8.238;2023-06-22T07:21:28;8.90;;;5.70;;
66212;SDS011;53015;50.046;8.238;2023-06-22T07:23:53;8.10;;;5.40;;
66212;SDS011;53015;50.046;8.238;2023-06-22T07:26:19;8.57;;;5.07;;
66212;SDS011;53015;50.046;8.238;2023-06-22T07:28:45;6.85;;;5.20;;
66212;SDS011;53015;50.046;8.238;2023-06-22T07:31:11;5.72;;;5.13;;
66212;SDS011;53015;50.046;8.238;2023-06-22T07:33:37;6.47;;;5.13;;
66212;SDS011;53015;50.046;8.238;2023-06-22T07:36:02;7.63;;;5.57;;
66212;SDS011;53015;50.046;8.238;2023-06-22T07:38:28;6.22;;;4.85;;
66212;SDS011;53015;50.046;8.238;2023-06-22T07:40:54;10.90;;;5.82;;
66212;SDS011;53015;50.046;8.238;2023-06-22T07:43:19;10.18;;;5.20;;
66212;SDS011;53015;50.046;8.238;2023-06-22T07:45:49;10.02;;;5.90;;
66212;SDS011;53015;50.046;8.238;2023-06-22T07:48:15;10.80;;;5.40;;
66212;SDS011;53015;50.046;8.238;2023-06-22T07:50:40;9.35;;;5.70;;
66212;SDS011;53015;50.046;8.238;2023-06-22T07:53:06;12.05;;;5.97;;
66212;SDS011;53015;50.046;8.238;2023-06-22T07:55:31;7.10;;;6.18;;
66212;SDS011;53015;50.046;8.238;2023-06-22T07:57:56;8.80;;;5.65;;
66212;SDS011;53015;50.046;8.238;2023-06-22T08:00:22;5.70;;;5.20;;
66212;SDS011;53015;50.046;8.238;2023-06-22T08:02:49;8.20;;;5.30;;
66212;SDS011;53015;50.046;8.238;2023-06-22T08:05:14;7.45;;;5.75;;
66212;SDS011;53015;50.046;8.238;2023-06-22T08:07:40;9.48;;;5.90;;
66212;SDS011;53015;50.046;8.238;2023-06-22T08:10:09;13.60;;;5.75;;
66212;SDS011;53015;50.046;8.238;2023-06-22T08:12:35;9.88;;;5.82;;
66212;SDS011;53015;50.046;8.238;2023-06-22T08:15:01;11.77;;;6.05;;
66212;SDS011;53015;50.046;8.238;2023-06-22T08:17:26;8.75;;;5.45;;
66212;SDS011;53015;50.046;8.238;2023-06-22T08:19:53;7.82;;;5.55;;
66212;SDS011;53015;50.046;8.238;2023-06-22T08:22:19;9.73;;;5.65;;
66212;SDS011;53015;50.046;8.238;2023-06-22T08:24:44;11.15;;;6.22;;
66212;SDS011;53015;50.046;8.238;2023-06-22T08:27:10;8.40;;;5.20;;
66212;SDS011;53015;50.046;8.238;2023-06-22T08:29:35;6.97;;;5.78;;
66212;SDS011;53015;50.046;8.238;2023-06-22T08:32:01;9.60;;;5.82;;
66212;SDS011;53015;50.046;8.238;2023-06-22T08:34:26;6.80;;;4.93;;
66212;SDS011;53015;50.046;8.238;2023-06-22T08:36:53;9.35;;;5.65;;
66212;SDS011;53015;50.046;8.238;2023-06-22T08:39:19;8.13;;;5.30;;
66212;SDS011;53015;50.046;8.238;2023-06-22T08:41:45;9.43;;;5.63;;
66212;SDS011;53015;50.046;8.238;2023-06-22T08:44:10;9.35;;;5.78;;
66212;SDS011;53015;50.046;8.238;2023-06-22T08:46:36;8.85;;;5.78;;
66212;SDS011;53015;50.046;8.238;2023-06-22T08:49:01;11.63;;;6.13;;
66212;SDS011;53015;50.046;8.238;2023-06-22T08:51:27;12.77;;;6.05;;
66212;SDS011;53015;50.046;8.238;2023-06-22T08:53:53;7.85;;;5.80;;
66212;SDS011;53015;50.046;8.238;2023-06-22T08:56:19;12.05;;;6.22;;
66212;SDS011;53015;50.046;8.238;2023-06-22T08:58:45;10.68;;;5.85;;
66212;SDS011;53015;50.046;8.238;2023-06-22T09:01:10;9.20;;;6.13;;
66212;SDS011;53015;50.046;8.238;2023-06-22T09:03:36;6.28;;;5.47;;
66212;SDS011;53015;50.046;8.238;2023-06-22T09:06:01;8.75;;;6.32;;
66212;SDS011;53015;50.046;8.238;2023-06-22T09:08:27;10.82;;;5.63;;
66212;SDS011;53015;50.046;8.238;2023-06-22T09:10:54;11.93;;;6.13;;
66212;SDS011;53015;50.046;8.238;2023-06-22T09:13:19;8.15;;;6.10;;
66212;SDS011;53015;50.046;8.238;2023-06-22T09:15:45;8.68;;;5.40;;
66212;SDS011;53015;50.046;8.238;2023-06-22T09:18:10;8.77;;;6.05;;
66212;SDS011;53015;50.046;8.238;2023-06-22T09:20:36;10.57;;;6.15;;
66212;SDS011;53015;50.046;8.238;2023-06-22T09:23:02;8.30;;;6.00;;
66212;SDS011;53015;50.046;8.238;2023-06-22T09:25:27;11.30;;;5.97;;
66212;SDS011;53015;50.046;8.238;2023-06-22T09:27:54;7.57;;;5.80;;
66212;SDS011;53015;50.046;8.238;2023-06-22T09:30:20;17.25;;;6.32;;
66212;SDS011;53015;50.046;8.238;2023-06-22T09:32:46;8.38;;;5.97;;
66212;SDS011;53015;50.046;8.238;2023-06-22T09:35:12;6.15;;;5.53;;
66212;SDS011;53015;50.046;8.238;2023-06-22T09:37:37;8.02;;;5.50;;
66212;SDS011;53015;50.046;8.238;2023-06-22T09:40:03;6.85;;;5.80;;
66212;SDS011;53015;50.046;8.238;2023-06-22T09:42:30;7.57;;;5.30;;
66212;SDS011;53015;50.046;8.238;2023-06-22T09:44:56;11.77;;;6.53;;
66212;SDS011;53015;50.046;8.238;2023-06-22T09:47:22;9.18;;;6.00;;
66212;SDS011;53015;50.046;8.238;2023-06-22T09:49:47;13.80;;;6.10;;
66212;SDS011;53015;50.046;8.238;2023-06-22T09:52:13;6.68;;;5.25;;
66212;SDS011;53015;50.046;8.238;2023-06-22T09:54:38;8.38;;;5.85;;
66212;SDS011;53015;50.046;8.238;2023-06-22T09:57:04;7.03;;;5.93;;
66212;SDS011;53015;50.046;8.238;2023-06-22T09:59:30;9.90;;;6.57;;
66212;SDS011;53015;50.046;8.238;2023-06-22T10:01:56;12.35;;;6.53;;
66212;SDS011;53015;50.046;8.238;2023-06-22T10:04:22;12.88;;;6.50;;
66212;SDS011;53015;50.046;8.238;2023-06-22T10:06:47;8.23;;;6.28;;
66212;SDS011;53015;50.046;8.238;2023-06-22T10:09:13;9.30;;;6.03;;
66212;SDS011;53015;50.046;8.238;2023-06-22T10:11:39;12.57;;;6.50;;
66212;SDS011;53015;50.046;8.238;2023-06-22T10:14:04;11.65;;;5.93;;
66212;SDS011;53015;50.046;8.238;2023-06-22T10:16:30;19.17;;;6.80;;
66212;SDS011;53015;50.046;8.238;2023-06-22T10:18:58;7.88;;;6.00;;
66212;SDS011;53015;50.046;8.238;2023-06-22T10:21:23;9.95;;;5.93;;
66212;SDS011;53015;50.046;8.238;2023-06-22T10:23:49;9.45;;;5.70;;
66212;SDS011;53015;50.046;8.238;2023-06-22T10:26:14;8.55;;;5.50;;
66212;SDS011;53015;50.046;8.238;2023-06-22T10:28:40;9.40;;;6.65;;
66212;SDS011;53015;50.046;8.238;2023-06-22T10:31:06;13.25;;;6.05;;
66212;SDS011;53015;50.046;8.238;2023-06-22T10:33:32;13.05;;;6.57;;
66212;SDS011;53015;50.046;8.238;2023-06-22T10:35:59;13.50;;;5.90;;
66212;SDS011;53015;50.046;8.238;2023-06-22T10:38:24;12.27;;;5.63;;
66212;SDS011;53015;50.046;8.238;2023-06-22T10:40:50;11.38;;;5.78;;
66212;SDS011;53015;50.046;8.238;2023-06-22T10:43:16;8.13;;;5.55;;
66212;SDS011;53015;50.046;8.238;2023-06-22T10:45:42;9.32;;;5.95;;
66212;SDS011;53015;50.046;8.238;2023-06-22T10:48:08;8.30;;;5.65;;
66212;SDS011;53015;50.046;8.238;2023-06-22T10:50:33;7.63;;;5.07;;
66212;SDS011;53015;50.046;8.238;2023-06-22T10:53:01;7.72;;;5.25;;
66212;SDS011;53015;50.046;8.238;2023-06-22T10:55:27;7.70;;;5.30;;
66212;SDS011;53015;50.046;8.238;2023-06-22T10:57:52;10.00;;;5.65;;
66212;SDS011;53015;50.046;8.238;2023-06-22T11:00:18;10.15;;;5.82;;
66212;SDS011;53015;50.046;8.238;2023-06-22T11:02:44;8.07;;;4.55;;
66212;SDS011;53015;50.046;8.238;2023-06-22T11:05:09;10.40;;;6.07;;
66212;SDS011;53015;50.046;8.238;2023-06-22T11:07:37;7.30;;;5.20;;
66212;SDS011;53015;50.046;8.238;2023-06-22T11:10:04;7.50;;;5.57;;
66212;SDS011;53015;50.046;8.238;2023-06-22T11:12:31;11.07;;;5.30;;
66212;SDS011;53015;50.046;8.238;2023-06-22T11:14:56;8.70;;;4.90;;
66212;SDS011;53015;50.046;8.238;2023-06-22T11:17:22;11.50;;;5.13;;
66212;SDS011;53015;50.046;8.238;2023-06-22T11:19:47;8.10;;;4.90;;
66212;SDS011;53015;50.046;8.238;2023-06-22T11:22:12;6.55;;;4.80;;
66212;SDS011;53015;50.046;8.238;2023-06-22T11:24:38;9.32;;;5.38;;
66212;SDS011;53015;50.046;8.238;2023-06-22T11:27:05;11.30;;;4.53;;
66212;SDS011;53015;50.046;8.238;2023-06-22T11:29:31;8.13;;;4.45;;
66212;SDS011;53015;50.046;8.238;2023-06-22T11:31:57;7.82;;;4.30;;
66212;SDS011;53015;50.046;8.238;2023-06-22T11:34:22;8.07;;;4.30;;
66212;SDS011;53015;50.046;8.238;2023-06-22T11:36:47;6.15;;;4.70;;
66212;SDS011;53015;50.046;8.238;2023-06-22T11:39:13;7.90;;;4.50;;
66212;SDS011;53015;50.046;8.238;2023-06-22T11:41:39;7.40;;;4.57;;
66212;SDS011;53015;50.046;8.238;2023-06-22T11:44:06;6.88;;;4.88;;
66212;SDS011;53015;50.046;8.238;2023-06-22T11:46:31;8.05;;;4.93;;
66212;SDS011;53015;50.046;8.238;2023-06-22T11:48:57;9.18;;;5.00;;
66212;SDS011;53015;50.046;8.238;2023-06-22T11:51:23;6.30;;;4.80;;
66212;SDS011;53015;50.046;8.238;2023-06-22T11:53:48;12.13;;;5.22;;
66212;SDS011;53015;50.046;8.238;2023-06-22T11:56:14;9.82;;;5.10;;
66212;SDS011;53015;50.046;8.238;2023-06-22T11:58:40;8.95;;;4.93;;
66212;SDS011;53015;50.046;8.238;2023-06-22T12:01:07;9.55;;;5.05;;
66212;SDS011;53015;50.046;8.238;2023-06-22T12:03:32;8.27;;;4.78;;
66212;SDS011;53015;50.046;8.238;2023-06-22T12:05:58;6.07;;;4.75;;
66212;SDS011;53015;50.046;8.238;2023-06-22T12:08:24;6.68;;;4.90;;
66212;SDS011;53015;50.046;8.238;2023-06-22T12:10:50;8.82;;;5.00;;
66212;SDS011;53015;50.046;8.238;2023-06-22T12:13:15;9.60;;;5.25;;
66212;SDS011;53015;50.046;8.238;2023-06-22T12:15:41;7.55;;;4.80;;
66212;SDS011;53015;50.046;8.238;2023-06-22T12:18:08;8.77;;;5.35;;
66212;SDS011;53015;50.046;8.238;2023-06-22T12:20:33;10.88;;;5.03;;
66212;SDS011;53015;50.046;8.238;2023-06-22T12:22:59;7.35;;;4.68;;
66212;SDS011;53015;50.046;8.238;2023-06-22T12:25:24;10.80;;;5.18;;
66212;SDS011;53015;50.046;8.238;2023-06-22T12:27:50;8.80;;;5.32;;
66212;SDS011;53015;50.046;8.238;2023-06-22T12:30:15;9.80;;;5.38;;
66212;SDS011;53015;50.046;8.238;2023-06-22T12:32:41;6.20;;;4.80;;
66212;SDS011;53015;50.046;8.238;2023-06-22T12:35:08;7.70;;;5.13;;
66212;SDS011;53015;50.046;8.238;2023-06-22T12:37:34;6.00;;;4.90;;
66212;SDS011;53015;50.046;8.238;2023-06-22T12:39:59;13.00;;;5.88;;
66212;SDS011;53015;50.046;8.238;2023-06-22T12:42:25;10.57;;;5.38;;
66212;SDS011;53015;50.046;8.238;2023-06-22T12:44:50;10.75;;;5.35;;
66212;SDS011;53015;50.046;8.238;2023-06-22T12:47:16;8.52;;;5.03;;
66212;SDS011;53015;50.046;8.238;2023-06-22T12:49:41;6.78;;;5.00;;
66212;SDS011;53015;50.046;8.238;2023-06-22T12:52:09;9.88;;;5.32;;
66212;SDS011;53015;50.046;8.238;2023-06-22T12:54:35;6.10;;;4.95;;
66212;SDS011;53015;50.046;8.238;2023-06-22T12:57:01;11.73;;;4.95;;
66212;SDS011;53015;50.046;8.238;2023-06-22T12:59:26;8.57;;;4.80;;
66212;SDS011;53015;50.046;8.238;2023-06-22T13:01:52;7.55;;;4.57;;
66212;SDS011;53015;50.046;8.238;2023-06-22T13:04:17;6.80;;;4.75;;
66212;SDS011;53015;50.046;8.238;2023-06-22T13:06:43;11.18;;;4.93;;
66212;SDS011;53015;50.046;8.238;2023-06-22T13:09:10;7.20;;;5.32;;
66212;SDS011;53015;50.046;8.238;2023-06-22T13:11:36;6.70;;;5.30;;
66212;SDS011;53015;50.046;8.238;2023-06-22T13:14:01;7.03;;;4.88;;
66212;SDS011;53015;50.046;8.238;2023-06-22T13:16:27;9.63;;;4.75;;
66212;SDS011;53015;50.046;8.238;2023-06-22T13:18:52;6.32;;;4.57;;
66212;SDS011;53015;50.046;8.238;2023-06-22T13:21:18;7.13;;;4.93;;
66212;SDS011;53015;50.046;8.238;2023-06-22T13:23:43;9.93;;;5.05;;
66212;SDS011;53015;50.046;8.238;2023-06-22T13:26:10;9.10;;;4.88;;
66212;SDS011;53015;50.046;8.238;2023-06-22T13:28:36;9.18;;;5.45;;
66212;SDS011;53015;50.046;8.238;2023-06-22T13:31:01;7.13;;;4.93;;
66212;SDS011;53015;50.046;8.238;2023-06-22T13:33:27;9.30;;;5.28;;
66212;SDS011;53015;50.046;8.238;2023-06-22T13:35:52;10.73;;;5.60;;
66212;SDS011;53015;50.046;8.238;2023-06-22T13:38:18;12.68;;;5.30;;
66212;SDS011;53015;50.046;8.238;2023-06-22T13:40:43;9.35;;;4.82;;
66212;SDS011;53015;50.046;8.238;2023-06-22T13:43:10;7.55;;;4.80;;
66212;SDS011;53015;50.046;8.238;2023-06-22T13:45:36;10.98;;;5.07;;
66212;SDS011;53015;50.046;8.238;2023-06-22T13:48:01;12.32;;;5.18;;
66212;SDS011;53015;50.046;8.238;2023-06-22T13:50:27;8.10;;;4.90;;
66212;SDS011;53015;50.046;8.238;2023-06-22T13:52:52;8.40;;;5.75;;
66212;SDS011;53015;50.046;8.238;2023-06-22T13:55:18;12.43;;;5.82;;
66212;SDS011;53015;50.046;8.238;2023-06-22T13:57:43;9.55;;;5.40;;
66212;SDS011;53015;50.046;8.238;2023-06-22T14:00:11;10.68;;;5.40;;
66212;SDS011;53015;50.046;8.238;2023-06-22T14:02:38;9.90;;;5.47;;
66212;SDS011;53015;50.046;8.238;2023-06-22T14:05:04;9.52;;;4.68;;
66212;SDS011;53015;50.046;8.238;2023-06-22T14:07:30;8.50;;;4.43;;
66212;SDS011;53015;50.046;8.238;2023-06-22T14:09:55;11.85;;;4.80;;
66212;SDS011;53015;50.046;8.238;2023-06-22T14:12:21;9.48;;;4.43;;
66212;SDS011;53015;50.046;8.238;2023-06-22T14:14:46;6.38;;;4.25;;
66212;SDS011;53015;50.046;8.238;2023-06-22T14:17:13;15.60;;;4.50;;
66212;SDS011;53015;50.046;8.238;2023-06-22T14:19:39;10.05;;;4.30;;
66212;SDS011;53015;50.046;8.238;2023-06-22T14:22:04;12.20;;;4.95;;
66212;SDS011;53015;50.046;8.238;2023-06-22T14:24:30;7.45;;;3.67;;
66212;SDS011;53015;50.046;8.238;2023-06-22T14:26:56;13.52;;;3.83;;
66212;SDS011;53015;50.046;8.238;2023-06-22T14:29:21;7.55;;;3.83;;
66212;SDS011;53015;50.046;8.238;2023-06-22T14:31:47;7.82;;;3.85;;
66212;SDS011;53015;50.046;8.238;2023-06-22T14:34:15;7.50;;;3.70;;
66212;SDS011;53015;50.046;8.238;2023-06-22T14:36:40;12.43;;;3.72;;
66212;SDS011;53015;50.046;8.238;2023-06-22T14:39:06;11.32;;;4.40;;
66212;SDS011;53015;50.046;8.238;2023-06-22T14:41:32;12.18;;;4.05;;